sensor_id;sensor_type;location;lat;lon;timestamp;temperature;humidity
55828;DHT22;41758;51.992;5.890;2023-03-15T00:00:42;8.10;67.10
55828;DHT22;41758;51.992;5.890;2023-03-15T00:03:11;8.00;66.70
55828;DHT22;41758;51.992;5.890;2023-03-15T00:05:46;7.80;65.60
55828;DHT22;41758;51.992;5.890;2023-03-15T00:08:15;7.50;65.80
55828;DHT22;41758;51.992;5.890;2023-03-15T00:10:42;7.40;66.40
55828;DHT22;41758;51.992;5.890;2023-03-15T00:13:09;7.30;67.50
55828;DHT22;41758;51.992;5.890;2023-03-15T00:15:55;7.30;67.70
55828;DHT22;41758;51.992;5.890;2023-03-15T00:18:21;7.30;67.40
55828;DHT22;41758;51.992;5.890;2023-03-15T00:20:47;7.30;67.50
55828;DHT22;41758;51.992;5.890;2023-03-15T00:23:13;7.30;68.00
55828;DHT22;41758;51.992;5.890;2023-03-15T00:25:39;7.30;68.60
55828;DHT22;41758;51.992;5.890;2023-03-15T00:28:07;7.30;68.80
55828;DHT22;41758;51.992;5.890;2023-03-15T00:30:33;7.30;68.60
55828;DHT22;41758;51.992;5.890;2023-03-15T00:32:59;7.40;68.80
55828;DHT22;41758;51.992;5.890;2023-03-15T00:35:25;7.40;69.40
55828;DHT22;41758;51.992;5.890;2023-03-15T00:37:54;7.40;68.60
55828;DHT22;41758;51.992;5.890;2023-03-15T00:40:21;7.40;68.20
55828;DHT22;41758;51.992;5.890;2023-03-15T00:42:47;7.40;69.00
55828;DHT22;41758;51.992;5.890;2023-03-15T00:45:21;7.50;69.60
55828;DHT22;41758;51.992;5.890;2023-03-15T00:47:51;7.50;69.30
55828;DHT22;41758;51.992;5.890;2023-03-15T00:50:20;7.50;69.10
55828;DHT22;41758;51.992;5.890;2023-03-15T00:52:47;7.50;69.70
55828;DHT22;41758;51.992;5.890;2023-03-15T00:55:15;7.60;69.30
55828;DHT22;41758;51.992;5.890;2023-03-15T00:57:42;7.60;68.80
55828;DHT22;41758;51.992;5.890;2023-03-15T01:00:10;7.50;69.50
55828;DHT22;41758;51.992;5.890;2023-03-15T01:02:37;7.60;69.20
55828;DHT22;41758;51.992;5.890;2023-03-15T01:05:05;7.60;69.10
55828;DHT22;41758;51.992;5.890;2023-03-15T01:07:31;7.60;69.60
55828;DHT22;41758;51.992;5.890;2023-03-15T01:09:59;7.70;69.40
55828;DHT22;41758;51.992;5.890;2023-03-15T01:12:27;7.60;68.50
55828;DHT22;41758;51.992;5.890;2023-03-15T01:14:54;7.60;68.90
55828;DHT22;41758;51.992;5.890;2023-03-15T01:17:21;7.60;69.50
55828;DHT22;41758;51.992;5.890;2023-03-15T01:19:47;7.60;69.60
55828;DHT22;41758;51.992;5.890;2023-03-15T01:22:12;7.60;69.00
55828;DHT22;41758;51.992;5.890;2023-03-15T01:24:38;7.60;69.30
55828;DHT22;41758;51.992;5.890;2023-03-15T01:27:07;7.60;69.20
55828;DHT22;41758;51.992;5.890;2023-03-15T01:29:33;7.60;69.60
55828;DHT22;41758;51.992;5.890;2023-03-15T01:32:00;7.60;69.50
55828;DHT22;41758;51.992;5.890;2023-03-15T01:34:25;7.60;69.50
55828;DHT22;41758;51.992;5.890;2023-03-15T01:36:51;7.60;69.00
55828;DHT22;41758;51.992;5.890;2023-03-15T01:39:20;7.60;69.60
55828;DHT22;41758;51.992;5.890;2023-03-15T01:41:46;7.60;69.50
55828;DHT22;41758;51.992;5.890;2023-03-15T01:44:17;7.70;69.40
55828;DHT22;41758;51.992;5.890;2023-03-15T01:46:44;7.70;69.80
55828;DHT22;41758;51.992;5.890;2023-03-15T01:49:31;7.70;69.40
55828;DHT22;41758;51.992;5.890;2023-03-15T01:52:08;7.70;68.90
55828;DHT22;41758;51.992;5.890;2023-03-15T01:57:34;7.70;69.00
55828;DHT22;41758;51.992;5.890;2023-03-15T02:00:16;7.70;68.80
55828;DHT22;41758;51.992;5.890;2023-03-15T02:05:23;7.60;68.00
55828;DHT22;41758;51.992;5.890;2023-03-15T02:07:50;7.60;68.70
55828;DHT22;41758;51.992;5.890;2023-03-15T02:10:32;7.50;68.40
55828;DHT22;41758;51.992;5.890;2023-03-15T02:13:01;7.50;69.00
55828;DHT22;41758;51.992;5.890;2023-03-15T02:15:28;7.50;69.20
55828;DHT22;41758;51.992;5.890;2023-03-15T02:17:54;7.50;69.10
55828;DHT22;41758;51.992;5.890;2023-03-15T02:20:47;7.60;69.10
55828;DHT22;41758;51.992;5.890;2023-03-15T02:23:22;7.60;69.10
55828;DHT22;41758;51.992;5.890;2023-03-15T02:25:50;7.60;69.10
55828;DHT22;41758;51.992;5.890;2023-03-15T02:28:20;7.50;68.60
55828;DHT22;41758;51.992;5.890;2023-03-15T02:30:47;7.60;69.20
55828;DHT22;41758;51.992;5.890;2023-03-15T02:33:24;7.60;69.20
55828;DHT22;41758;51.992;5.890;2023-03-15T02:35:52;7.60;68.80
55828;DHT22;41758;51.992;5.890;2023-03-15T02:38:18;7.60;69.10
55828;DHT22;41758;51.992;5.890;2023-03-15T02:40:47;7.60;69.70
55828;DHT22;41758;51.992;5.890;2023-03-15T02:43:16;7.50;69.10
55828;DHT22;41758;51.992;5.890;2023-03-15T02:45:43;7.50;69.50
55828;DHT22;41758;51.992;5.890;2023-03-15T02:48:10;7.50;70.00
55828;DHT22;41758;51.992;5.890;2023-03-15T02:50:37;7.50;69.30
55828;DHT22;41758;51.992;5.890;2023-03-15T02:53:04;7.60;69.50
55828;DHT22;41758;51.992;5.890;2023-03-15T02:55:30;7.50;69.20
55828;DHT22;41758;51.992;5.890;2023-03-15T02:58:00;7.50;69.40
55828;DHT22;41758;51.992;5.890;2023-03-15T03:00:27;7.50;68.80
55828;DHT22;41758;51.992;5.890;2023-03-15T03:02:53;7.50;69.20
55828;DHT22;41758;51.992;5.890;2023-03-15T03:05:19;7.50;69.30
55828;DHT22;41758;51.992;5.890;2023-03-15T03:07:45;7.40;69.30
55828;DHT22;41758;51.992;5.890;2023-03-15T03:10:14;7.40;68.60
55828;DHT22;41758;51.992;5.890;2023-03-15T03:12:53;7.40;68.30
55828;DHT22;41758;51.992;5.890;2023-03-15T03:15:27;7.30;69.10
55828;DHT22;41758;51.992;5.890;2023-03-15T03:17:52;7.30;69.10
55828;DHT22;41758;51.992;5.890;2023-03-15T03:20:21;7.30;69.20
55828;DHT22;41758;51.992;5.890;2023-03-15T03:22:48;7.30;69.50
55828;DHT22;41758;51.992;5.890;2023-03-15T03:25:16;7.30;69.70
55828;DHT22;41758;51.992;5.890;2023-03-15T03:27:42;7.30;69.50
55828;DHT22;41758;51.992;5.890;2023-03-15T03:30:12;7.30;69.20
55828;DHT22;41758;51.992;5.890;2023-03-15T03:32:42;7.30;68.60
55828;DHT22;41758;51.992;5.890;2023-03-15T03:35:09;7.20;68.80
55828;DHT22;41758;51.992;5.890;2023-03-15T03:37:35;7.20;68.60
55828;DHT22;41758;51.992;5.890;2023-03-15T03:40:06;7.20;69.20
55828;DHT22;41758;51.992;5.890;2023-03-15T03:42:34;7.20;68.80
55828;DHT22;41758;51.992;5.890;2023-03-15T03:45:01;7.20;69.40
55828;DHT22;41758;51.992;5.890;2023-03-15T03:47:34;7.10;69.00
55828;DHT22;41758;51.992;5.890;2023-03-15T03:50:00;7.10;68.80
55828;DHT22;41758;51.992;5.890;2023-03-15T03:52:26;7.10;69.20
55828;DHT22;41758;51.992;5.890;2023-03-15T03:54:59;7.10;69.00
55828;DHT22;41758;51.992;5.890;2023-03-15T03:57:24;7.00;69.40
55828;DHT22;41758;51.992;5.890;2023-03-15T03:59:50;7.00;69.30
55828;DHT22;41758;51.992;5.890;2023-03-15T04:02:16;7.10;69.30
55828;DHT22;41758;51.992;5.890;2023-03-15T04:04:49;7.00;69.30
55828;DHT22;41758;51.992;5.890;2023-03-15T04:07:17;7.00;68.70
55828;DHT22;41758;51.992;5.890;2023-03-15T04:09:43;7.00;69.20
55828;DHT22;41758;51.992;5.890;2023-03-15T04:12:09;7.00;69.40
55828;DHT22;41758;51.992;5.890;2023-03-15T04:14:38;7.00;69.60
55828;DHT22;41758;51.992;5.890;2023-03-15T04:17:07;7.10;70.10
55828;DHT22;41758;51.992;5.890;2023-03-15T04:19:34;7.10;69.60
55828;DHT22;41758;51.992;5.890;2023-03-15T04:22:00;7.10;69.80
55828;DHT22;41758;51.992;5.890;2023-03-15T04:24:42;7.00;69.20
55828;DHT22;41758;51.992;5.890;2023-03-15T04:27:08;7.00;70.00
55828;DHT22;41758;51.992;5.890;2023-03-15T04:29:54;7.10;69.40
55828;DHT22;41758;51.992;5.890;2023-03-15T04:32:43;7.00;69.10
55828;DHT22;41758;51.992;5.890;2023-03-15T04:35:14;7.00;68.80
55828;DHT22;41758;51.992;5.890;2023-03-15T04:37:48;7.00;69.00
55828;DHT22;41758;51.992;5.890;2023-03-15T04:40:29;7.10;69.40
55828;DHT22;41758;51.992;5.890;2023-03-15T04:43:20;7.10;69.20
55828;DHT22;41758;51.992;5.890;2023-03-15T04:46:07;7.00;69.00
55828;DHT22;41758;51.992;5.890;2023-03-15T04:48:55;7.00;69.50
55828;DHT22;41758;51.992;5.890;2023-03-15T04:51:47;7.00;69.20
55828;DHT22;41758;51.992;5.890;2023-03-15T04:54:25;7.00;69.40
55828;DHT22;41758;51.992;5.890;2023-03-15T04:57:10;7.00;69.30
55828;DHT22;41758;51.992;5.890;2023-03-15T04:59:49;6.90;68.50
55828;DHT22;41758;51.992;5.890;2023-03-15T05:02:17;6.90;69.40
55828;DHT22;41758;51.992;5.890;2023-03-15T05:05:12;6.90;68.80
55828;DHT22;41758;51.992;5.890;2023-03-15T05:07:46;6.90;69.40
55828;DHT22;41758;51.992;5.890;2023-03-15T05:10:29;6.80;69.20
55828;DHT22;41758;51.992;5.890;2023-03-15T05:13:16;6.80;68.60
55828;DHT22;41758;51.992;5.890;2023-03-15T05:15:57;6.80;69.90
55828;DHT22;41758;51.992;5.890;2023-03-15T05:18:42;6.80;70.60
55828;DHT22;41758;51.992;5.890;2023-03-15T05:21:29;6.90;70.70
55828;DHT22;41758;51.992;5.890;2023-03-15T05:24:35;6.90;70.70
55828;DHT22;41758;51.992;5.890;2023-03-15T05:27:33;7.00;70.40
55828;DHT22;41758;51.992;5.890;2023-03-15T05:30:23;7.00;70.30
55828;DHT22;41758;51.992;5.890;2023-03-15T05:33:01;6.90;68.70
55828;DHT22;41758;51.992;5.890;2023-03-15T05:35:38;6.90;68.30
55828;DHT22;41758;51.992;5.890;2023-03-15T05:38:28;6.80;68.80
55828;DHT22;41758;51.992;5.890;2023-03-15T05:41:15;6.80;69.00
55828;DHT22;41758;51.992;5.890;2023-03-15T05:43:54;6.70;67.70
55828;DHT22;41758;51.992;5.890;2023-03-15T05:46:38;6.60;67.30
55828;DHT22;41758;51.992;5.890;2023-03-15T05:49:33;6.50;67.40
55828;DHT22;41758;51.992;5.890;2023-03-15T05:52:09;6.40;67.40
55828;DHT22;41758;51.992;5.890;2023-03-15T05:55:04;6.30;68.80
55828;DHT22;41758;51.992;5.890;2023-03-15T05:57:47;6.30;68.50
55828;DHT22;41758;51.992;5.890;2023-03-15T06:00:26;6.30;68.50
55828;DHT22;41758;51.992;5.890;2023-03-15T06:02:58;6.30;69.10
55828;DHT22;41758;51.992;5.890;2023-03-15T06:05:44;6.30;69.20
55828;DHT22;41758;51.992;5.890;2023-03-15T06:08:15;6.30;69.80
55828;DHT22;41758;51.992;5.890;2023-03-15T06:10:44;6.30;69.50
55828;DHT22;41758;51.992;5.890;2023-03-15T06:13:11;6.30;69.40
55828;DHT22;41758;51.992;5.890;2023-03-15T06:15:36;6.30;70.00
55828;DHT22;41758;51.992;5.890;2023-03-15T06:18:03;6.30;70.40
55828;DHT22;41758;51.992;5.890;2023-03-15T06:20:30;6.40;70.50
55828;DHT22;41758;51.992;5.890;2023-03-15T06:23:01;6.40;70.50
55828;DHT22;41758;51.992;5.890;2023-03-15T06:25:38;6.40;70.60
55828;DHT22;41758;51.992;5.890;2023-03-15T06:28:04;6.50;70.40
55828;DHT22;41758;51.992;5.890;2023-03-15T06:30:30;6.60;70.30
55828;DHT22;41758;51.992;5.890;2023-03-15T06:32:59;6.60;70.20
55828;DHT22;41758;51.992;5.890;2023-03-15T06:35:25;6.70;70.10
55828;DHT22;41758;51.992;5.890;2023-03-15T06:37:52;6.80;70.10
55828;DHT22;41758;51.992;5.890;2023-03-15T06:40:17;6.80;70.00
55828;DHT22;41758;51.992;5.890;2023-03-15T06:42:45;6.90;70.00
55828;DHT22;41758;51.992;5.890;2023-03-15T06:45:14;7.00;69.90
55828;DHT22;41758;51.992;5.890;2023-03-15T06:47:41;7.00;69.70
55828;DHT22;41758;51.992;5.890;2023-03-15T06:50:07;7.00;69.50
55828;DHT22;41758;51.992;5.890;2023-03-15T06:52:33;7.10;69.40
55828;DHT22;41758;51.992;5.890;2023-03-15T06:54:59;7.10;69.40
55828;DHT22;41758;51.992;5.890;2023-03-15T06:57:25;7.10;69.30
55828;DHT22;41758;51.992;5.890;2023-03-15T06:59:50;7.10;69.20
55828;DHT22;41758;51.992;5.890;2023-03-15T07:02:18;7.10;69.10
55828;DHT22;41758;51.992;5.890;2023-03-15T07:04:44;7.10;69.10
55828;DHT22;41758;51.992;5.890;2023-03-15T07:07:11;7.10;69.10
55828;DHT22;41758;51.992;5.890;2023-03-15T07:09:37;7.10;69.10
55828;DHT22;41758;51.992;5.890;2023-03-15T07:12:03;7.10;69.20
55828;DHT22;41758;51.992;5.890;2023-03-15T07:14:29;7.10;69.00
55828;DHT22;41758;51.992;5.890;2023-03-15T07:16:55;7.10;68.70
55828;DHT22;41758;51.992;5.890;2023-03-15T07:19:21;7.10;69.00
55828;DHT22;41758;51.992;5.890;2023-03-15T07:21:47;7.20;69.00
55828;DHT22;41758;51.992;5.890;2023-03-15T07:24:12;7.10;69.10
55828;DHT22;41758;51.992;5.890;2023-03-15T07:26:38;7.20;69.20
55828;DHT22;41758;51.992;5.890;2023-03-15T07:29:04;7.20;69.30
55828;DHT22;41758;51.992;5.890;2023-03-15T07:31:30;7.20;69.30
55828;DHT22;41758;51.992;5.890;2023-03-15T07:33:55;7.30;69.50
55828;DHT22;41758;51.992;5.890;2023-03-15T07:36:21;7.30;69.50
55828;DHT22;41758;51.992;5.890;2023-03-15T07:38:47;7.30;69.40
55828;DHT22;41758;51.992;5.890;2023-03-15T07:41:12;7.30;69.50
55828;DHT22;41758;51.992;5.890;2023-03-15T07:43:46;7.30;69.40
55828;DHT22;41758;51.992;5.890;2023-03-15T07:46:16;7.30;69.10
55828;DHT22;41758;51.992;5.890;2023-03-15T07:48:42;7.40;68.80
55828;DHT22;41758;51.992;5.890;2023-03-15T07:51:08;7.40;68.90
55828;DHT22;41758;51.992;5.890;2023-03-15T07:53:33;7.40;68.90
55828;DHT22;41758;51.992;5.890;2023-03-15T07:55:59;7.40;69.20
55828;DHT22;41758;51.992;5.890;2023-03-15T07:58:25;7.50;68.90
55828;DHT22;41758;51.992;5.890;2023-03-15T08:00:54;7.50;69.00
55828;DHT22;41758;51.992;5.890;2023-03-15T08:03:20;7.50;69.10
55828;DHT22;41758;51.992;5.890;2023-03-15T08:05:45;7.60;68.80
55828;DHT22;41758;51.992;5.890;2023-03-15T08:08:11;7.60;69.10
55828;DHT22;41758;51.992;5.890;2023-03-15T08:10:40;7.60;69.20
55828;DHT22;41758;51.992;5.890;2023-03-15T08:13:07;7.70;68.70
55828;DHT22;41758;51.992;5.890;2023-03-15T08:15:33;7.70;68.50
55828;DHT22;41758;51.992;5.890;2023-03-15T08:17:59;7.70;68.80
55828;DHT22;41758;51.992;5.890;2023-03-15T08:20:24;7.80;68.60
55828;DHT22;41758;51.992;5.890;2023-03-15T08:22:50;7.80;68.50
55828;DHT22;41758;51.992;5.890;2023-03-15T08:25:19;7.90;69.00
55828;DHT22;41758;51.992;5.890;2023-03-15T08:27:45;7.90;68.80
55828;DHT22;41758;51.992;5.890;2023-03-15T08:30:12;7.90;68.10
55828;DHT22;41758;51.992;5.890;2023-03-15T08:32:39;7.90;67.50
55828;DHT22;41758;51.992;5.890;2023-03-15T08:35:06;7.90;68.30
55828;DHT22;41758;51.992;5.890;2023-03-15T08:37:32;8.00;68.40
55828;DHT22;41758;51.992;5.890;2023-03-15T08:39:57;8.10;68.60
55828;DHT22;41758;51.992;5.890;2023-03-15T08:42:28;8.10;67.80
55828;DHT22;41758;51.992;5.890;2023-03-15T08:44:54;8.10;68.00
55828;DHT22;41758;51.992;5.890;2023-03-15T08:47:24;8.20;66.10
55828;DHT22;41758;51.992;5.890;2023-03-15T08:49:50;8.20;66.70
55828;DHT22;41758;51.992;5.890;2023-03-15T08:52:18;8.20;66.30
55828;DHT22;41758;51.992;5.890;2023-03-15T08:54:44;8.20;66.20
55828;DHT22;41758;51.992;5.890;2023-03-15T08:57:10;8.30;66.70
55828;DHT22;41758;51.992;5.890;2023-03-15T08:59:38;8.30;65.50
55828;DHT22;41758;51.992;5.890;2023-03-15T09:02:03;8.30;65.90
55828;DHT22;41758;51.992;5.890;2023-03-15T09:04:30;8.30;66.30
55828;DHT22;41758;51.992;5.890;2023-03-15T09:06:56;8.40;66.10
55828;DHT22;41758;51.992;5.890;2023-03-15T09:09:22;8.40;65.40
55828;DHT22;41758;51.992;5.890;2023-03-15T09:11:48;8.40;65.20
55828;DHT22;41758;51.992;5.890;2023-03-15T09:14:13;8.40;64.50
55828;DHT22;41758;51.992;5.890;2023-03-15T09:16:39;8.40;64.30
55828;DHT22;41758;51.992;5.890;2023-03-15T09:19:05;8.40;63.80
55828;DHT22;41758;51.992;5.890;2023-03-15T09:21:30;8.40;63.50
55828;DHT22;41758;51.992;5.890;2023-03-15T09:23:56;8.50;61.90
55828;DHT22;41758;51.992;5.890;2023-03-15T09:26:22;8.60;62.60
55828;DHT22;41758;51.992;5.890;2023-03-15T09:28:48;8.60;63.00
55828;DHT22;41758;51.992;5.890;2023-03-15T09:31:13;8.60;62.30
55828;DHT22;41758;51.992;5.890;2023-03-15T09:33:39;8.60;63.40
55828;DHT22;41758;51.992;5.890;2023-03-15T09:36:05;8.70;62.80
55828;DHT22;41758;51.992;5.890;2023-03-15T09:38:31;8.70;62.50
55828;DHT22;41758;51.992;5.890;2023-03-15T09:40:58;8.70;60.50
55828;DHT22;41758;51.992;5.890;2023-03-15T09:43:55;8.80;61.90
55828;DHT22;41758;51.992;5.890;2023-03-15T09:46:31;8.80;60.90
55828;DHT22;41758;51.992;5.890;2023-03-15T09:49:18;8.90;60.60
55828;DHT22;41758;51.992;5.890;2023-03-15T09:52:02;9.00;61.00
55828;DHT22;41758;51.992;5.890;2023-03-15T09:54:49;9.00;61.20
55828;DHT22;41758;51.992;5.890;2023-03-15T09:57:21;9.10;60.60
55828;DHT22;41758;51.992;5.890;2023-03-15T09:59:51;9.20;59.60
55828;DHT22;41758;51.992;5.890;2023-03-15T10:02:28;9.40;59.00
55828;DHT22;41758;51.992;5.890;2023-03-15T10:05:00;9.60;59.80
55828;DHT22;41758;51.992;5.890;2023-03-15T10:07:28;9.70;59.30
55828;DHT22;41758;51.992;5.890;2023-03-15T10:09:54;9.80;60.70
55828;DHT22;41758;51.992;5.890;2023-03-15T10:12:33;9.90;59.50
55828;DHT22;41758;51.992;5.890;2023-03-15T10:15:35;10.10;58.70
55828;DHT22;41758;51.992;5.890;2023-03-15T10:21:15;10.40;58.50
55828;DHT22;41758;51.992;5.890;2023-03-15T10:23:48;10.50;58.50
55828;DHT22;41758;51.992;5.890;2023-03-15T10:26:18;10.60;55.90
55828;DHT22;41758;51.992;5.890;2023-03-15T10:28:45;10.80;55.20
55828;DHT22;41758;51.992;5.890;2023-03-15T10:31:15;11.00;56.90
55828;DHT22;41758;51.992;5.890;2023-03-15T10:33:43;11.20;57.60
55828;DHT22;41758;51.992;5.890;2023-03-15T10:36:16;11.30;56.30
55828;DHT22;41758;51.992;5.890;2023-03-15T10:38:43;11.40;57.00
55828;DHT22;41758;51.992;5.890;2023-03-15T10:41:11;11.60;56.30
55828;DHT22;41758;51.992;5.890;2023-03-15T10:43:38;11.70;54.40
55828;DHT22;41758;51.992;5.890;2023-03-15T10:46:21;11.90;54.60
55828;DHT22;41758;51.992;5.890;2023-03-15T10:49:08;12.30;52.80
55828;DHT22;41758;51.992;5.890;2023-03-15T10:51:42;12.70;53.30
55828;DHT22;41758;51.992;5.890;2023-03-15T10:54:21;13.00;51.70
55828;DHT22;41758;51.992;5.890;2023-03-15T10:57:05;13.10;49.00
55828;DHT22;41758;51.992;5.890;2023-03-15T10:59:36;13.00;50.10
55828;DHT22;41758;51.992;5.890;2023-03-15T11:04:46;13.00;51.80
55828;DHT22;41758;51.992;5.890;2023-03-15T11:07:13;13.10;52.10
55828;DHT22;41758;51.992;5.890;2023-03-15T11:09:41;13.20;50.80
55828;DHT22;41758;51.992;5.890;2023-03-15T11:12:09;13.30;50.40
55828;DHT22;41758;51.992;5.890;2023-03-15T11:14:42;13.60;48.00
55828;DHT22;41758;51.992;5.890;2023-03-15T11:17:17;13.90;50.50
55828;DHT22;41758;51.992;5.890;2023-03-15T11:19:56;14.20;48.40
55828;DHT22;41758;51.992;5.890;2023-03-15T11:22:22;14.60;46.90
55828;DHT22;41758;51.992;5.890;2023-03-15T11:24:48;15.00;44.20
55828;DHT22;41758;51.992;5.890;2023-03-15T11:27:16;15.50;44.30
55828;DHT22;41758;51.992;5.890;2023-03-15T11:29:53;16.00;44.60
55828;DHT22;41758;51.992;5.890;2023-03-15T11:32:23;16.60;43.40
55828;DHT22;41758;51.992;5.890;2023-03-15T11:37:50;17.30;43.00
55828;DHT22;41758;51.992;5.890;2023-03-15T11:40:21;17.60;41.70
55828;DHT22;41758;51.992;5.890;2023-03-15T11:43:00;18.00;42.00
55828;DHT22;41758;51.992;5.890;2023-03-15T11:45:33;18.40;39.60
55828;DHT22;41758;51.992;5.890;2023-03-15T11:51:19;18.90;38.40
55828;DHT22;41758;51.992;5.890;2023-03-15T11:54:06;19.40;38.80
55828;DHT22;41758;51.992;5.890;2023-03-15T12:01:49;20.30;35.00
55828;DHT22;41758;51.992;5.890;2023-03-15T12:06:58;20.40;35.00
55828;DHT22;41758;51.992;5.890;2023-03-15T12:12:13;20.60;35.60
55828;DHT22;41758;51.992;5.890;2023-03-15T12:17:52;21.10;33.00
55828;DHT22;41758;51.992;5.890;2023-03-15T12:20:35;21.70;32.90
55828;DHT22;41758;51.992;5.890;2023-03-15T12:28:37;22.70;32.60
55828;DHT22;41758;51.992;5.890;2023-03-15T12:31:07;22.50;30.50
55828;DHT22;41758;51.992;5.890;2023-03-15T12:33:50;22.70;31.60
55828;DHT22;41758;51.992;5.890;2023-03-15T12:39:21;22.90;30.80
55828;DHT22;41758;51.992;5.890;2023-03-15T12:41:49;23.20;30.80
55828;DHT22;41758;51.992;5.890;2023-03-15T12:47:04;23.80;31.10
55828;DHT22;41758;51.992;5.890;2023-03-15T12:52:04;24.10;29.00
55828;DHT22;41758;51.992;5.890;2023-03-15T12:57:29;24.70;27.60
55828;DHT22;41758;51.992;5.890;2023-03-15T13:00:04;24.90;28.60
55828;DHT22;41758;51.992;5.890;2023-03-15T13:02:47;25.20;29.20
55828;DHT22;41758;51.992;5.890;2023-03-15T13:08:22;24.80;27.80
55828;DHT22;41758;51.992;5.890;2023-03-15T13:11:18;24.60;27.00
55828;DHT22;41758;51.992;5.890;2023-03-15T13:17:13;25.30;28.00
55828;DHT22;41758;51.992;5.890;2023-03-15T13:19:55;25.70;27.30
55828;DHT22;41758;51.992;5.890;2023-03-15T13:22:54;26.00;29.90
55828;DHT22;41758;51.992;5.890;2023-03-15T13:28:37;26.00;26.60
55828;DHT22;41758;51.992;5.890;2023-03-15T13:33:39;26.20;27.80
55828;DHT22;41758;51.992;5.890;2023-03-15T13:36:12;26.30;27.60
55828;DHT22;41758;51.992;5.890;2023-03-15T13:38:43;26.10;26.70
55828;DHT22;41758;51.992;5.890;2023-03-15T13:43:48;25.80;24.30
55828;DHT22;41758;51.992;5.890;2023-03-15T13:46:14;25.70;24.30
55828;DHT22;41758;51.992;5.890;2023-03-15T13:48:42;25.30;26.10
55828;DHT22;41758;51.992;5.890;2023-03-15T13:51:29;24.80;26.20
55828;DHT22;41758;51.992;5.890;2023-03-15T13:56:35;24.10;25.80
55828;DHT22;41758;51.992;5.890;2023-03-15T13:59:02;23.60;26.40
55828;DHT22;41758;51.992;5.890;2023-03-15T14:01:30;23.20;25.10
55828;DHT22;41758;51.992;5.890;2023-03-15T14:04:09;22.70;27.50
55828;DHT22;41758;51.992;5.890;2023-03-15T14:06:37;22.40;28.60
55828;DHT22;41758;51.992;5.890;2023-03-15T14:09:10;22.00;29.40
55828;DHT22;41758;51.992;5.890;2023-03-15T14:11:40;21.40;28.60
55828;DHT22;41758;51.992;5.890;2023-03-15T14:14:22;20.60;29.20
55828;DHT22;41758;51.992;5.890;2023-03-15T14:16:49;19.90;30.20
55828;DHT22;41758;51.992;5.890;2023-03-15T14:19:25;19.30;31.20
55828;DHT22;41758;51.992;5.890;2023-03-15T14:21:56;18.90;30.80
55828;DHT22;41758;51.992;5.890;2023-03-15T14:24:31;18.50;31.50
55828;DHT22;41758;51.992;5.890;2023-03-15T14:27:00;18.10;31.30
55828;DHT22;41758;51.992;5.890;2023-03-15T14:29:30;17.80;31.60
55828;DHT22;41758;51.992;5.890;2023-03-15T14:32:06;17.50;33.70
55828;DHT22;41758;51.992;5.890;2023-03-15T14:35:05;17.20;31.60
55828;DHT22;41758;51.992;5.890;2023-03-15T14:37:41;16.90;34.00
55828;DHT22;41758;51.992;5.890;2023-03-15T14:40:21;16.70;34.60
55828;DHT22;41758;51.992;5.890;2023-03-15T14:42:49;16.50;34.30
55828;DHT22;41758;51.992;5.890;2023-03-15T14:45:16;16.30;35.00
55828;DHT22;41758;51.992;5.890;2023-03-15T14:47:50;16.30;35.90
55828;DHT22;41758;51.992;5.890;2023-03-15T14:50:19;16.10;36.40
55828;DHT22;41758;51.992;5.890;2023-03-15T14:52:45;16.00;35.70
55828;DHT22;41758;51.992;5.890;2023-03-15T14:55:14;15.90;36.50
55828;DHT22;41758;51.992;5.890;2023-03-15T14:57:40;15.80;35.30
55828;DHT22;41758;51.992;5.890;2023-03-15T15:00:09;15.70;37.40
55828;DHT22;41758;51.992;5.890;2023-03-15T15:02:38;15.70;36.60
55828;DHT22;41758;51.992;5.890;2023-03-15T15:05:28;15.60;36.60
55828;DHT22;41758;51.992;5.890;2023-03-15T15:08:02;15.50;34.80
55828;DHT22;41758;51.992;5.890;2023-03-15T15:10:29;15.40;38.00
55828;DHT22;41758;51.992;5.890;2023-03-15T15:12:55;15.30;38.50
55828;DHT22;41758;51.992;5.890;2023-03-15T15:15:46;15.30;37.40
55828;DHT22;41758;51.992;5.890;2023-03-15T15:18:12;15.20;36.80
55828;DHT22;41758;51.992;5.890;2023-03-15T15:20:38;15.10;37.80
55828;DHT22;41758;51.992;5.890;2023-03-15T15:23:08;15.00;35.70
55828;DHT22;41758;51.992;5.890;2023-03-15T15:25:34;14.90;35.80
55828;DHT22;41758;51.992;5.890;2023-03-15T15:28:00;14.90;36.20
55828;DHT22;41758;51.992;5.890;2023-03-15T15:30:26;14.90;38.50
55828;DHT22;41758;51.992;5.890;2023-03-15T15:32:53;14.80;37.70
55828;DHT22;41758;51.992;5.890;2023-03-15T15:35:19;14.80;38.40
55828;DHT22;41758;51.992;5.890;2023-03-15T15:37:47;14.70;36.90
55828;DHT22;41758;51.992;5.890;2023-03-15T15:42:47;14.60;38.00
55828;DHT22;41758;51.992;5.890;2023-03-15T15:45:14;14.50;35.70
55828;DHT22;41758;51.992;5.890;2023-03-15T15:47:40;14.40;38.00
55828;DHT22;41758;51.992;5.890;2023-03-15T15:50:09;14.40;37.90
55828;DHT22;41758;51.992;5.890;2023-03-15T15:52:36;14.40;38.50
55828;DHT22;41758;51.992;5.890;2023-03-15T15:55:04;14.30;36.40
55828;DHT22;41758;51.992;5.890;2023-03-15T15:57:30;14.30;40.00
55828;DHT22;41758;51.992;5.890;2023-03-15T15:59:56;14.30;39.60
55828;DHT22;41758;51.992;5.890;2023-03-15T16:02:22;14.30;39.60
55828;DHT22;41758;51.992;5.890;2023-03-15T16:04:48;14.20;39.10
55828;DHT22;41758;51.992;5.890;2023-03-15T16:07:15;14.20;38.90
55828;DHT22;41758;51.992;5.890;2023-03-15T16:09:40;14.10;40.80
55828;DHT22;41758;51.992;5.890;2023-03-15T16:12:15;14.20;37.70
55828;DHT22;41758;51.992;5.890;2023-03-15T16:14:42;14.20;37.30
55828;DHT22;41758;51.992;5.890;2023-03-15T16:17:25;14.10;38.30
55828;DHT22;41758;51.992;5.890;2023-03-15T16:19:53;14.10;37.70
55828;DHT22;41758;51.992;5.890;2023-03-15T16:22:20;14.00;36.80
55828;DHT22;41758;51.992;5.890;2023-03-15T16:24:51;14.00;37.60
55828;DHT22;41758;51.992;5.890;2023-03-15T16:27:21;14.00;36.40
55828;DHT22;41758;51.992;5.890;2023-03-15T16:29:48;13.90;36.00
55828;DHT22;41758;51.992;5.890;2023-03-15T16:32:18;13.90;37.40
55828;DHT22;41758;51.992;5.890;2023-03-15T16:34:49;13.80;37.90
55828;DHT22;41758;51.992;5.890;2023-03-15T16:37:21;13.80;36.90
55828;DHT22;41758;51.992;5.890;2023-03-15T16:39:48;13.80;37.10
55828;DHT22;41758;51.992;5.890;2023-03-15T16:42:16;13.80;40.00
55828;DHT22;41758;51.992;5.890;2023-03-15T16:44:42;13.70;40.10
55828;DHT22;41758;51.992;5.890;2023-03-15T16:47:08;13.70;40.90
55828;DHT22;41758;51.992;5.890;2023-03-15T16:49:34;13.70;38.10
55828;DHT22;41758;51.992;5.890;2023-03-15T16:52:01;13.60;36.90
55828;DHT22;41758;51.992;5.890;2023-03-15T16:54:29;13.60;37.20
55828;DHT22;41758;51.992;5.890;2023-03-15T16:56:56;13.50;36.90
55828;DHT22;41758;51.992;5.890;2023-03-15T16:59:22;13.50;37.40
55828;DHT22;41758;51.992;5.890;2023-03-15T17:01:47;13.40;37.60
55828;DHT22;41758;51.992;5.890;2023-03-15T17:04:14;13.40;37.40
55828;DHT22;41758;51.992;5.890;2023-03-15T17:06:44;13.30;38.00
55828;DHT22;41758;51.992;5.890;2023-03-15T17:11:40;13.30;37.30
55828;DHT22;41758;51.992;5.890;2023-03-15T17:14:13;13.20;36.80